Time;durP1;ratioP1;P1;durP2;ratioP2;P2;SDS_P1;SDS_P2;PMS_P1;PMS_P2;Temp;Humidity;BMP_temperature;BMP_pressure;BME280_temperature;BME280_humidity;BME280_pressure;Samples;Min_cycle;Max_cycle;Signal;HPM_P1;HPM_P2
2022/04/12 00:00:20;;;;;;;5.43;4.47;;;;;;;11.82;44.68;100831.50;3541860;40;20065;-64
2022/04/12 00:02:46;;;;;;;7.35;4.55;;;;;;;11.94;44.12;100837.06;3540372;40;20108;-64
2022/04/12 00:05:12;;;;;;;4.68;4.28;;;;;;;11.91;45.07;100823.81;3551375;40;20306;-64
2022/04/12 00:07:45;;;;;;;5.55;4.30;;;;;;;11.73;44.85;100802.50;3553232;40;20084;-64
2022/04/12 00:10:13;;;;;;;7.13;4.25;;;;;;;11.82;44.65;100823.41;3550493;40;20592;-64
2022/04/12 00:12:40;;;;;;;4.53;4.07;;;;;;;11.84;45.07;100823.34;3543952;40;20057;-64
2022/04/12 00:15:08;;;;;;;6.32;4.50;;;;;;;11.80;44.73;100820.00;3543815;40;20069;-64
2022/04/12 00:20:26;;;;;;;4.82;3.90;;;;;;;11.75;44.72;100816.72;3551541;40;20155;-64
2022/04/12 00:22:56;;;;;;;6.07;4.32;;;;;;;11.73;44.62;100818.66;3549825;40;20056;-64
2022/04/12 00:25:23;;;;;;;6.72;4.13;;;;;;;11.74;44.81;100815.00;3551477;40;20058;-64
2022/04/12 00:27:52;;;;;;;4.88;3.63;;;;;;;11.74;45.25;100815.00;3543889;40;20061;-64
2022/04/12 00:30:19;;;;;;;6.88;4.13;;;;;;;11.73;44.46;100818.66;3544205;40;20073;-64
2022/04/12 00:32:46;;;;;;;5.25;3.65;;;;;;;11.69;45.25;100806.38;3542148;40;20069;-64
2022/04/12 00:35:13;;;;;;;4.97;3.58;;;;;;;11.57;44.60;100788.34;3550540;40;20066;-64
2022/04/12 00:37:38;;;;;;;6.13;3.92;;;;;;;11.68;44.92;100820.81;3553077;40;20053;-64
2022/04/12 00:40:05;;;;;;;4.70;3.45;;;;;;;11.68;45.10;100815.41;3548530;40;20155;-64
2022/04/12 00:42:31;;;;;;;6.25;3.75;;;;;;;11.67;44.66;100815.50;3545366;40;20447;-64
2022/04/12 00:44:58;;;;;;;5.03;3.88;;;;;;;11.66;44.88;100817.34;3547508;40;20069;-64
2022/04/12 00:47:24;;;;;;;5.75;3.63;;;;;;;11.66;44.70;100819.16;3529245;40;20319;-64
2022/04/12 00:49:50;;;;;;;5.10;3.97;;;;;;;11.62;45.31;100805.06;3548851;40;20065;-64
2022/04/12 00:52:18;;;;;;;5.45;3.95;;;;;;;11.56;45.20;100805.47;3549461;40;20141;-64
2022/04/12 00:54:45;;;;;;;5.18;3.67;;;;;;;11.55;45.77;100806.44;3550384;40;20097;-64
2022/04/12 00:57:12;;;;;;;6.47;3.55;;;;;;;11.54;45.99;100810.06;3550457;40;20061;-64
2022/04/12 00:59:38;;;;;;;5.82;3.80;;;;;;;11.51;45.32;100819.25;3545155;40;20152;-64
2022/04/12 01:02:07;;;;;;;4.53;3.47;;;;;;;11.52;45.61;100814.72;3543136;40;20073;-64
2022/04/12 01:04:34;;;;;;;5.63;3.45;;;;;;;11.26;45.93;100786.78;3535338;40;20363;-64
2022/04/12 01:07:00;;;;;;;6.18;3.50;;;;;;;11.26;46.05;100779.59;3548539;40;20270;-64
2022/04/12 01:09:27;;;;;;;4.70;3.63;;;;;;;11.39;45.82;100799.38;3553717;40;20062;-64
2022/04/12 01:11:55;;;;;;;5.18;3.60;;;;;;;11.39;45.38;100799.38;3548447;40;20057;-64
2022/04/12 01:14:22;;;;;;;6.15;3.78;;;;;;;11.36;46.06;100796.88;3544356;40;20104;-64
2022/04/12 01:16:49;;;;;;;5.43;3.67;;;;;;;11.32;47.01;100798.06;3551043;40;20069;-64
2022/04/12 01:19:15;;;;;;;4.88;3.40;;;;;;;11.00;47.29;100758.91;3539062;40;20772;-64
2022/04/12 01:22:05;;;;;;;6.43;3.90;;;;;;;11.19;47.14;100809.69;3544471;40;20072;-64
2022/04/12 01:24:33;;;;;;;8.27;3.58;;;;;;;11.15;46.96;100807.19;3552967;40;20061;-64
2022/04/12 01:26:59;;;;;;;6.25;3.83;;;;;;;11.11;46.49;100802.97;3550754;40;21579;-64
2022/04/12 01:29:34;;;;;;;8.05;3.67;;;;;;;11.09;47.11;100804.03;3542711;40;20064;-64
2022/04/12 01:32:01;;;;;;;5.55;3.60;;;;;;;11.03;46.76;100793.66;3549079;40;20064;-64
2022/04/12 01:34:28;;;;;;;4.60;3.63;;;;;;;11.04;46.91;100798.97;3541440;40;20068;-64
2022/04/12 01:36:54;;;;;;;8.05;4.32;;;;;;;11.05;47.00;100795.31;3547745;40;20211;-64
2022/04/12 01:39:20;;;;;;;11.13;4.32;;;;;;;11.02;47.51;100795.50;3551886;40;20418;-64
2022/04/12 01:41:46;;;;;;;7.18;4.57;;;;;;;11.00;47.76;100793.88;3549679;40;20069;-64
2022/04/12 01:44:12;;;;;;;7.93;4.10;;;;;;;11.03;47.43;100804.44;3542441;40;20134;-64
2022/04/12 01:46:38;;;;;;;5.90;3.58;;;;;;;10.98;46.83;100793.13;3551508;40;20058;-64
2022/04/12 01:49:03;;;;;;;6.53;3.80;;;;;;;11.00;47.77;100797.41;3548582;40;20554;-63
2022/04/12 01:51:29;;;;;;;5.47;3.80;;;;;;;11.00;47.73;100799.25;3542042;40;20076;-64
2022/04/12 01:53:54;;;;;;;7.30;4.13;;;;;;;10.96;47.85;100792.34;3548774;40;20071;-63
2022/04/12 01:56:20;;;;;;;6.45;3.97;;;;;;;10.90;48.54;100786.38;3551239;40;20143;-64
2022/04/12 01:58:46;;;;;;;6.13;3.70;;;;;;;10.76;48.42;100758.66;3546452;40;20065;-64
2022/04/12 02:01:11;;;;;;;5.60;3.90;;;;;;;10.87;48.30;100783.88;3548177;40;20177;-64
2022/04/12 02:03:37;;;;;;;7.80;3.78;;;;;;;10.81;48.20;100776.22;3549515;40;20081;-64
2022/04/12 02:06:02;;;;;;;4.72;3.78;;;;;;;10.83;48.29;100785.06;3523134;40;20358;-64
2022/04/12 02:08:28;;;;;;;9.88;3.83;;;;;;;10.75;47.95;100773.94;3551223;40;20086;-64
2022/04/12 02:10:54;;;;;;;6.35;3.80;;;;;;;10.82;47.51;100788.72;3548271;40;20069;-63
2022/04/12 02:13:19;;;;;;;7.05;3.88;;;;;;;10.82;47.65;100794.09;3552168;40;20073;-62
2022/04/12 02:15:45;;;;;;;6.20;3.88;;;;;;;10.82;48.65;100788.72;3541781;40;20057;-62
2022/04/12 02:18:10;;;;;;;7.60;3.88;;;;;;;10.80;47.82;100796.00;3548916;40;20061;-62
2022/04/12 02:20:36;;;;;;;7.15;4.25;;;;;;;10.80;47.99;100777.19;3541351;40;20056;-63
2022/04/12 02:23:01;;;;;;;7.43;4.32;;;;;;;10.74;48.08;100769.50;3541276;40;20813;-63
2022/04/12 02:25:27;;;;;;;6.53;3.70;;;;;;;10.77;48.69;100777.38;3549565;40;20068;-63
2022/04/12 02:27:53;;;;;;;7.05;3.90;;;;;;;10.75;48.25;100787.38;3548779;40;20069;-64
2022/04/12 02:30:18;;;;;;;9.45;3.92;;;;;;;10.74;48.67;100779.41;3552409;40;20056;-63
2022/04/12 02:32:44;;;;;;;5.10;3.63;;;;;;;10.72;48.36;100781.31;3542769;40;20061;-63
2022/04/12 02:35:10;;;;;;;6.03;3.50;;;;;;;10.61;48.98;100765.88;3538426;40;23777;-63
2022/04/12 02:37:36;;;;;;;6.47;3.42;;;;;;;10.58;49.19;100766.06;3549075;40;20416;-63
2022/04/12 02:40:04;;;;;;;6.18;3.97;;;;;;;10.59;49.54;100775.84;3541705;40;20839;-63
2022/04/12 02:42:30;;;;;;;5.80;4.20;;;;;;;10.56;49.36;100771.56;3549593;40;20234;-63
2022/04/12 02:44:56;;;;;;;6.55;3.85;;;;;;;10.51;49.95;100773.66;3548058;40;20815;-63
2022/04/12 02:47:26;;;;;;;8.43;4.28;;;;;;;10.47;50.12;100766.75;3542717;40;20125;-64
2022/04/12 02:49:53;;;;;;;5.35;3.70;;;;;;;10.41;50.29;100759.94;3549284;40;20116;-63
2022/04/12 02:52:19;;;;;;;6.53;4.07;;;;;;;10.35;49.91;100763.00;3542165;40;20396;-63
2022/04/12 02:54:44;;;;;;;5.93;4.00;;;;;;;10.32;50.10;100763.19;3552383;40;20057;-63
2022/04/12 02:57:10;;;;;;;8.02;4.13;;;;;;;10.26;50.70;100763.56;3571426;23;20046;-64
2022/04/12 02:59:35;;;;;;;5.95;3.90;;;;;;;10.27;50.23;100765.28;3554762;40;20072;-63
2022/04/12 03:02:01;;;;;;;5.60;3.95;;;;;;;10.25;50.58;100760.94;3544533;40;20135;-63
2022/04/12 03:04:27;;;;;;;6.10;4.35;;;;;;;10.13;51.23;100746.44;3554389;40;20045;-62
2022/04/12 03:06:52;;;;;;;6.95;3.90;;;;;;;10.19;51.17;100752.28;3540032;40;20072;-60
2022/04/12 03:09:18;;;;;;;5.53;3.35;;;;;;;10.19;51.17;100748.75;3543275;40;20388;-62
2022/04/12 03:11:44;;;;;;;5.45;4.03;;;;;;;10.09;51.20;100735.03;3542874;40;20359;-62
2022/04/12 03:14:10;;;;;;;6.65;3.72;;;;;;;10.12;51.45;100744.72;3543286;40;20073;-63
2022/04/12 03:16:35;;;;;;;7.80;4.32;;;;;;;10.11;51.56;100740.28;3544041;40;20054;-66
2022/04/12 03:19:01;;;;;;;6.00;3.50;;;;;;;10.14;50.56;100737.41;3533035;40;20669;-63
2022/04/12 03:21:27;;;;;;;5.30;4.10;;;;;;;10.13;50.68;100735.69;3542357;40;20050;-63
2022/04/12 03:23:52;;;;;;;6.45;3.80;;;;;;;10.07;51.68;100719.94;3533806;40;20064;-61
2022/04/12 03:26:18;;;;;;;6.40;3.95;;;;;;;10.08;51.10;100721.66;3544145;40;20058;-61
2022/04/12 03:28:43;;;;;;;7.97;4.10;;;;;;;10.02;51.48;100711.31;3544998;40;20058;-61
2022/04/12 03:31:09;;;;;;;6.60;4.05;;;;;;;10.11;50.88;100734.91;3544202;40;20069;-62
2022/04/12 03:33:34;;;;;;;7.72;3.90;;;;;;;10.09;51.46;100718.91;3539602;40;20062;-63
2022/04/12 03:36:00;;;;;;;6.00;4.18;;;;;;;9.90;51.93;100686.09;3542591;40;20724;-64
2022/04/12 03:38:25;;;;;;;7.95;3.95;;;;;;;10.02;51.51;100713.97;3533615;40;20609;-64
2022/04/12 03:40:51;;;;;;;24.58;13.95;;;;;;;10.10;51.18;100730.50;3543194;40;20065;-64
2022/04/12 03:43:17;;;;;;;8.55;5.57;;;;;;;10.09;51.07;100740.38;3543533;40;20060;-64
2022/04/12 03:45:43;;;;;;;8.35;4.13;;;;;;;10.06;51.68;100727.16;3544028;40;20285;-64
2022/04/12 03:48:08;;;;;;;6.80;4.53;;;;;;;10.02;51.81;100722.91;3537444;40;20077;-65
2022/04/12 03:50:37;;;;;;;6.47;4.03;;;;;;;10.03;51.42;100729.16;3555159;40;20077;-65
2022/04/12 03:53:03;;;;;;;5.55;3.97;;;;;;;10.00;52.08;100717.63;3536808;40;20136;-64
2022/04/12 03:55:31;;;;;;;6.05;4.60;;;;;;;9.92;53.11;100706.50;3547479;40;20069;-63
2022/04/12 03:58:06;;;;;;;8.27;5.32;;;;;;;9.88;53.07;100698.72;3535336;40;20061;-64
2022/04/12 04:00:34;;;;;;;8.65;5.68;;;;;;;9.84;53.45;100708.78;3544186;40;20063;-64
2022/04/12 04:03:00;;;;;;;8.02;5.53;;;;;;;9.69;53.07;100691.78;3542602;40;20045;-65
2022/04/12 04:05:26;;;;;;;7.80;5.20;;;;;;;9.75;52.63;100696.78;3542178;40;20058;-64
2022/04/12 04:07:52;;;;;;;9.80;4.80;;;;;;;9.76;52.35;100693.13;3541692;40;20072;-65
2022/04/12 04:10:19;;;;;;;6.50;4.22;;;;;;;9.89;52.37;100714.72;3550969;40;20143;-64
2022/04/12 04:12:45;;;;;;;8.65;4.13;;;;;;;9.85;51.96;100696.22;3543791;40;20061;-65
2022/04/12 04:15:12;;;;;;;7.38;4.40;;;;;;;9.98;52.39;100714.16;3544295;40;20073;-66
2022/04/12 04:17:45;;;;;;;8.02;4.15;;;;;;;9.77;52.11;100677.91;3534804;40;20151;-64
2022/04/12 04:20:16;;;;;;;6.55;4.15;;;;;;;9.98;51.79;100714.16;3540555;40;20068;-64
2022/04/12 04:22:42;;;;;;;7.60;4.35;;;;;;;9.91;52.42;100701.22;3543401;40;20712;-64
2022/04/12 04:25:11;;;;;;;8.80;4.75;;;;;;;9.85;52.67;100689.03;3536687;40;20077;-63
2022/04/12 04:27:36;;;;;;;8.15;4.57;;;;;;;9.92;52.52;100700.25;3534528;40;20148;-64
2022/04/12 04:30:10;;;;;;;12.40;5.07;;;;;;;9.92;53.26;100706.50;3544980;40;20311;-64
2022/04/12 04:32:37;;;;;;;9.82;4.72;;;;;;;9.91;53.48;100711.97;3536025;40;20060;-64
2022/04/12 04:35:03;;;;;;;11.43;5.50;;;;;;;9.83;52.74;100704.41;3539172;40;20094;-64
2022/04/12 04:37:29;;;;;;;10.95;4.90;;;;;;;9.89;53.39;100712.03;3542113;40;20061;-64
2022/04/12 04:39:54;;;;;;;7.38;4.97;;;;;;;9.87;53.28;100718.50;3535626;40;20073;-64
2022/04/12 04:42:22;;;;;;;8.85;4.88;;;;;;;9.88;52.92;100721.06;3546322;40;20362;-64
2022/04/12 04:44:47;;;;;;;8.90;4.80;;;;;;;9.86;52.41;100720.28;3542091;40;20069;-64
2022/04/12 04:47:13;;;;;;;9.63;5.03;;;;;;;9.74;52.90;100716.53;3548936;40;20057;-64
2022/04/12 04:49:39;;;;;;;9.57;4.90;;;;;;;9.77;53.23;100745.88;3533406;40;20668;-65
2022/04/12 04:52:05;;;;;;;8.55;5.22;;;;;;;9.76;53.54;100759.38;3548575;40;20053;-63
2022/04/12 04:54:31;;;;;;;6.68;4.90;;;;;;;9.68;54.15;100759.00;3536682;40;20832;-64
2022/04/12 04:56:56;;;;;;;6.43;4.57;;;;;;;9.40;54.09;100720.34;3551709;40;20061;-64
2022/04/12 04:59:22;;;;;;;7.57;4.75;;;;;;;9.57;54.06;100758.75;3537195;40;20415;-65
2022/04/12 05:01:48;;;;;;;7.53;4.95;;;;;;;9.47;54.37;100742.31;3548004;40;20057;-65
2022/04/12 05:04:14;;;;;;;10.80;5.43;;;;;;;9.60;53.93;100763.94;3539952;40;20081;-63
2022/04/12 05:06:39;;;;;;;7.78;4.90;;;;;;;9.57;54.28;100748.00;3540848;40;20070;-64
2022/04/12 05:09:05;;;;;;;7.13;5.03;;;;;;;9.54;55.12;100732.94;3548588;40;20057;-63
2022/04/12 05:11:31;;;;;;;12.98;5.70;;;;;;;9.52;54.97;100730.38;3534608;40;20069;-62
2022/04/12 05:13:57;;;;;;;14.10;5.43;;;;;;;9.60;55.01;100737.09;3548140;40;20055;-64
2022/04/12 05:16:23;;;;;;;7.65;5.07;;;;;;;9.58;55.60;100733.63;3537370;40;20050;-62
2022/04/12 05:18:51;;;;;;;8.57;4.90;;;;;;;9.70;54.80;100739.13;3539772;40;20163;-63
2022/04/12 05:21:17;;;;;;;7.68;4.88;;;;;;;9.81;53.81;100743.88;3547232;40;20053;-62
2022/04/12 05:23:43;;;;;;;9.13;5.55;;;;;;;9.91;53.45;100736.13;3545605;40;20161;-63
2022/04/12 05:26:09;;;;;;;10.27;5.53;;;;;;;9.98;54.05;100735.66;3539564;40;20384;-63
2022/04/12 05:28:35;;;;;;;12.85;5.63;;;;;;;10.07;52.64;100730.69;3545564;40;20050;-63
2022/04/12 05:31:00;;;;;;;11.80;5.05;;;;;;;10.21;52.68;100728.00;3552181;40;20049;-62
2022/04/12 05:33:26;;;;;;;12.23;5.57;;;;;;;10.35;52.51;100719.13;3535230;40;20767;-61
2022/04/12 05:35:51;;;;;;;10.45;5.28;;;;;;;10.50;52.41;100726.25;3548264;40;20049;-63
2022/04/12 05:38:17;;;;;;;9.73;5.47;;;;;;;10.57;51.66;100740.16;3550681;40;20397;-61
2022/04/12 05:40:42;;;;;;;9.85;5.25;;;;;;;10.50;51.59;100722.66;3546162;40;20073;-63
2022/04/12 05:43:08;;;;;;;9.80;5.32;;;;;;;10.56;52.39;100727.66;3541359;40;20577;-62
2022/04/12 05:45:34;;;;;;;10.10;5.38;;;;;;;10.54;51.74;100718.84;3545896;40;20053;-63
2022/04/12 05:48:00;;;;;;;10.07;5.40;;;;;;;10.32;52.63;100693.31;3542927;40;20076;-62
2022/04/12 05:50:27;;;;;;;12.25;6.28;;;;;;;10.56;52.28;100738.41;3540910;40;20319;-61
2022/04/12 05:52:53;;;;;;;8.23;5.40;;;;;;;10.55;52.34;100742.91;3546903;40;20064;-62
2022/04/12 05:55:22;;;;;;;8.15;5.38;;;;;;;10.58;51.71;100758.00;3557222;40;20104;-62
2022/04/12 05:58:03;;;;;;;8.82;5.93;;;;;;;10.56;51.60;100746.47;3542752;40;20058;-62
2022/04/12 06:00:31;;;;;;;8.02;5.57;;;;;;;10.56;52.17;100736.59;3549974;40;20054;-62
2022/04/12 06:02:58;;;;;;;10.23;6.05;;;;;;;10.56;52.37;100733.03;3542861;40;20078;-63
2022/04/12 06:05:28;;;;;;;12.38;5.80;;;;;;;10.54;52.35;100732.28;3546825;40;20054;-61
2022/04/12 06:07:54;;;;;;;10.68;6.00;;;;;;;10.63;51.94;100746.00;3552463;40;20053;-62
2022/04/12 06:10:22;;;;;;;8.95;5.68;;;;;;;10.59;52.33;100732.84;3550860;40;20045;-61
2022/04/12 06:12:50;;;;;;;13.88;6.47;;;;;;;10.65;52.14;100733.31;3547552;40;20132;-64
2022/04/12 06:15:16;;;;;;;9.77;6.07;;;;;;;10.80;50.95;100744.91;3535708;40;20376;-63
2022/04/12 06:17:42;;;;;;;10.50;6.28;;;;;;;10.90;51.63;100737.97;3546577;40;20135;-63
2022/04/12 06:20:17;;;;;;;9.38;5.68;;;;;;;10.99;50.64;100736.53;3538492;40;20058;-63
2022/04/12 06:22:44;;;;;;;10.40;5.85;;;;;;;10.84;50.86;100691.81;3537082;40;20167;-63
2022/04/12 06:25:14;;;;;;;9.73;5.95;;;;;;;11.23;50.17;100746.66;3545074;40;20061;-63
2022/04/12 06:27:51;;;;;;;9.40;5.63;;;;;;;11.34;49.89;100742.28;3544848;40;20912;-63
2022/04/12 06:30:24;;;;;;;9.63;5.57;;;;;;;11.49;49.85;100748.47;3533444;40;20061;-63
2022/04/12 06:32:52;;;;;;;8.35;5.30;;;;;;;11.49;49.90;100731.47;3542775;40;20159;-63
2022/04/12 06:35:18;;;;;;;7.22;5.88;;;;;;;11.75;49.06;100749.41;3523279;40;21132;-62
2022/04/12 06:37:46;;;;;;;8.55;5.25;;;;;;;11.95;48.42;100758.84;3537040;40;20053;-64
2022/04/12 06:40:16;;;;;;;9.88;5.18;;;;;;;12.05;47.80;100743.78;3543801;40;20049;-63
2022/04/12 06:42:42;;;;;;;10.82;5.25;;;;;;;12.27;48.13;100758.44;3540332;40;20060;-64
2022/04/12 06:45:11;;;;;;;8.80;5.93;;;;;;;12.39;47.64;100756.72;3540303;40;20053;-62
2022/04/12 06:47:37;;;;;;;7.03;4.90;;;;;;;12.59;47.66;100736.41;3544401;40;20066;-64
2022/04/12 06:50:04;;;;;;;8.13;5.22;;;;;;;12.68;46.18;100727.66;3545408;40;20066;-65
2022/04/12 06:52:30;;;;;;;9.43;5.38;;;;;;;12.95;46.31;100736.47;3533695;40;20567;-64
2022/04/12 06:54:56;;;;;;;8.68;5.30;;;;;;;13.19;45.93;100741.91;3547483;40;20321;-63
2022/04/12 06:57:22;;;;;;;8.00;5.57;;;;;;;13.40;45.80;100741.28;3536426;40;20105;-64
2022/04/12 06:59:47;;;;;;;8.88;5.53;;;;;;;13.54;45.06;100724.03;3546436;40;20054;-64
2022/04/12 07:02:13;;;;;;;7.90;4.80;;;;;;;13.90;44.26;100725.78;3531422;40;20069;-63
2022/04/12 07:04:39;;;;;;;11.00;5.15;;;;;;;14.15;43.95;100735.53;3542231;40;20413;-63
2022/04/12 07:07:05;;;;;;;13.57;5.50;;;;;;;14.37;43.18;100730.16;3538119;40;20125;-62
2022/04/12 07:09:30;;;;;;;7.95;4.93;;;;;;;14.36;42.43;100695.13;3539562;40;20716;-63
2022/04/12 07:11:59;;;;;;;7.05;5.20;;;;;;;14.67;42.17;100726.00;3546159;40;20054;-64
2022/04/12 07:14:27;;;;;;;10.25;5.10;;;;;;;14.82;41.85;100729.31;3541956;40;20054;-63
2022/04/12 07:16:53;;;;;;;10.43;6.20;;;;;;;14.98;41.88;100708.13;3534674;40;20054;-63
2022/04/12 07:19:19;;;;;;;12.43;8.15;;;;;;;15.39;40.90;100743.63;3539753;40;20132;-63
2022/04/12 07:21:44;;;;;;;8.80;5.38;;;;;;;15.56;40.56;100741.19;3544706;40;20050;-64
2022/04/12 07:24:10;;;;;;;6.25;4.80;;;;;;;15.81;40.41;100732.88;3534354;40;20304;-63
2022/04/12 07:26:36;;;;;;;7.07;4.85;;;;;;;16.07;40.39;100731.50;3545541;40;20104;-66
2022/04/12 07:29:03;;;;;;;7.55;4.97;;;;;;;16.26;39.55;100719.91;3547039;40;20042;-63
2022/04/12 07:31:29;;;;;;;7.18;4.78;;;;;;;16.57;39.01;100728.91;3533757;40;20705;-64
2022/04/12 07:33:55;;;;;;;7.95;5.15;;;;;;;16.66;38.83;100719.09;3545821;40;20053;-64
2022/04/12 07:36:20;;;;;;;7.50;4.50;;;;;;;16.71;39.15;100711.38;3542721;40;20231;-64
2022/04/12 07:38:48;;;;;;;7.03;4.88;;;;;;;16.93;38.15;100738.34;3550573;40;20064;-64
2022/04/12 07:41:15;;;;;;;9.35;4.82;;;;;;;16.45;37.99;100640.47;3533631;40;20050;-63
2022/04/12 07:43:42;;;;;;;6.18;4.53;;;;;;;17.17;37.80;100731.72;3544544;40;20056;-64
2022/04/12 07:46:08;;;;;;;10.48;4.50;;;;;;;16.46;37.41;100599.63;3545752;40;20076;-64
2022/04/12 07:48:34;;;;;;;12.25;4.88;;;;;;;17.30;38.03;100735.03;3535809;40;21031;-64
2022/04/12 07:50:59;;;;;;;7.70;4.75;;;;;;;17.38;37.54;100726.19;3545624;40;20066;-64
2022/04/12 07:53:25;;;;;;;8.73;4.43;;;;;;;17.53;37.24;100734.75;3542569;40;20076;-64
2022/04/12 07:55:51;;;;;;;11.45;4.15;;;;;;;17.69;37.72;100726.91;3538531;40;20057;-64
2022/04/12 07:58:16;;;;;;;6.50;4.53;;;;;;;17.92;36.86;100738.38;3539223;40;20343;-63
2022/04/12 08:00:42;;;;;;;7.78;4.35;;;;;;;18.08;36.63;100721.47;3544823;40;20058;-64
2022/04/12 08:03:08;;;;;;;6.97;4.13;;;;;;;18.22;36.16;100722.88;3535256;40;20091;-64
2022/04/12 08:05:35;;;;;;;7.85;4.68;;;;;;;17.78;36.85;100652.66;3542370;40;20081;-65
2022/04/12 08:08:02;;;;;;;6.50;4.25;;;;;;;18.33;35.75;100723.56;3544931;40;20073;-64
2022/04/12 08:10:28;;;;;;;9.15;4.20;;;;;;;18.47;36.21;100734.97;3537529;40;20069;-64
2022/04/12 08:12:54;;;;;;;7.38;4.43;;;;;;;18.53;36.73;100731.66;3542242;40;20102;-64
2022/04/12 08:15:20;;;;;;;8.68;4.20;;;;;;;18.63;36.20;100739.78;3545012;40;20108;-64
2022/04/12 08:17:45;;;;;;;8.80;3.90;;;;;;;18.71;36.12;100732.59;3546719;40;20061;-65
2022/04/12 08:20:15;;;;;;;5.70;4.07;;;;;;;18.92;36.11;100739.69;3537371;40;20303;-64
2022/04/12 08:22:42;;;;;;;5.88;3.67;;;;;;;19.00;36.09;100737.06;3546297;40;20051;-65
2022/04/12 08:25:10;;;;;;;5.85;3.90;;;;;;;19.16;36.17;100740.00;3545043;40;20069;-63
2022/04/12 08:27:37;;;;;;;5.20;3.60;;;;;;;19.23;35.66;100727.47;3541026;40;20168;-65
2022/04/12 08:30:09;;;;;;;5.72;3.40;;;;;;;19.33;34.39;100721.94;3548187;40;20063;-64
2022/04/12 08:32:35;;;;;;;5.05;3.42;;;;;;;19.53;35.10;100727.25;3546731;40;20045;-64
2022/04/12 08:35:03;;;;;;;7.13;3.22;;;;;;;19.70;34.07;100737.34;3536955;40;20135;-63
2022/04/12 08:37:28;;;;;;;6.78;3.10;;;;;;;19.92;34.37;100738.72;3542724;40;20179;-64
2022/04/12 08:39:54;;;;;;;6.10;3.00;;;;;;;20.11;34.63;100726.78;3544637;40;20049;-64
2022/04/12 08:42:21;;;;;;;4.50;3.05;;;;;;;20.38;33.69;100723.03;3536099;40;20054;-64
2022/04/12 08:44:49;;;;;;;3.40;2.70;;;;;;;20.45;34.81;100724.06;3544397;40;20038;-64
2022/04/12 08:47:18;;;;;;;6.22;2.50;;;;;;;20.56;33.24;100712.06;3542066;40;20104;-63
2022/04/12 08:49:44;;;;;;;4.57;2.47;;;;;;;20.77;32.92;100708.91;3544365;40;20467;-65
2022/04/12 08:52:13;;;;;;;8.32;2.95;;;;;;;20.91;32.36;100697.38;3534827;40;20065;-63
2022/04/12 08:54:41;;;;;;;5.53;2.67;;;;;;;20.90;31.92;100684.75;3553073;40;20052;-64
2022/04/12 08:57:09;;;;;;;5.20;2.70;;;;;;;20.97;32.60;100685.78;3559889;23;20072;-64
2022/04/12 08:59:37;;;;;;;6.63;3.00;;;;;;;21.20;32.19;100707.03;3539418;40;23202;-63
2022/04/12 09:02:07;;;;;;;6.70;2.60;;;;;;;21.21;32.39;100689.59;3543155;40;20041;-64
2022/04/12 09:04:33;;;;;;;4.00;2.70;;;;;;;21.33;33.11;100707.41;3543032;40;20132;-63
2022/04/12 09:07:00;;;;;;;5.30;2.75;;;;;;;21.38;31.81;100718.72;3535589;40;20095;-63
2022/04/12 09:09:29;;;;;;;5.53;2.60;;;;;;;21.36;32.31;100718.03;3542120;40;20884;-63
2022/04/12 09:12:02;;;;;;;8.38;2.72;;;;;;;21.44;31.84;100708.97;3540762;40;20082;-63
2022/04/12 09:14:38;;;;;;;5.40;2.78;;;;;;;21.54;31.98;100704.22;3541525;40;20062;-63
2022/04/12 09:17:12;;;;;;;4.25;2.80;;;;;;;21.69;32.34;100693.44;3545246;40;20056;-61
2022/04/12 09:19:48;;;;;;;4.82;2.78;;;;;;;21.83;31.40;100670.88;3556651;40;20577;-63
2022/04/12 09:22:17;;;;;;;4.43;2.88;;;;;;;22.10;31.24;100669.63;3537918;40;20086;-63
2022/04/12 09:24:52;;;;;;;4.03;2.65;;;;;;;22.15;30.92;100663.66;3545247;40;20057;-61
2022/04/12 09:27:24;;;;;;;6.40;2.88;;;;;;;22.11;32.01;100654.09;3547250;40;20064;-61
2022/04/12 09:30:03;;;;;;;7.43;3.40;;;;;;;22.23;30.91;100672.75;3536433;40;20111;-61
2022/04/12 09:32:35;;;;;;;5.90;2.78;;;;;;;22.23;30.55;100663.66;3532145;40;21195;-61
2022/04/12 09:35:01;;;;;;;4.20;2.57;;;;;;;22.35;31.42;100648.56;3544347;40;20166;-61
2022/04/12 09:37:31;;;;;;;3.90;2.80;;;;;;;22.40;31.00;100665.34;3525434;40;21157;-62
2022/04/12 09:39:59;;;;;;;5.82;3.10;;;;;;;22.30;30.77;100667.44;3540894;40;20052;-61
2022/04/12 09:42:57;;;;;;;3.80;2.53;;;;;;;22.15;31.77;100656.28;3542964;40;20067;-62
2022/04/12 09:45:30;;;;;;;9.20;2.90;;;;;;;22.18;30.81;100674.28;3539375;40;20051;-62
2022/04/12 09:47:58;;;;;;;4.53;2.45;;;;;;;22.09;32.00;100675.31;3542973;40;20050;-62
2022/04/12 09:50:26;;;;;;;4.80;2.90;;;;;;;22.11;32.16;100678.72;3541879;40;20400;-62
2022/04/12 09:52:57;;;;;;;4.47;2.50;;;;;;;22.15;31.81;100669.97;3539552;40;20372;-61
2022/04/12 09:55:44;;;;;;;5.70;2.38;;;;;;;22.17;30.90;100678.03;3533791;40;20072;-63
2022/04/12 09:58:16;;;;;;;9.35;3.40;;;;;;;22.09;31.31;100683.50;3544067;40;20052;-61
2022/04/12 10:00:47;;;;;;;7.05;2.40;;;;;;;22.02;32.63;100686.94;3540268;40;20082;-62
2022/04/12 10:03:17;;;;;;;5.68;2.92;;;;;;;22.12;31.85;100666.75;3546807;40;20058;-62
2022/04/12 10:05:44;;;;;;;11.52;5.93;;;;;;;22.21;32.18;100668.47;3546150;40;20121;-62
2022/04/12 10:08:12;;;;;;;9.50;4.00;;;;;;;22.05;32.26;100638.34;3536182;40;20116;-61
2022/04/12 10:10:44;;;;;;;4.70;2.75;;;;;;;22.31;31.93;100640.88;3533395;40;20159;-62
2022/04/12 10:13:13;;;;;;;4.78;2.70;;;;;;;22.47;31.84;100640.81;3542932;40;20061;-62
2022/04/12 10:15:39;;;;;;;5.50;2.97;;;;;;;22.57;31.91;100640.63;3536738;40;20058;-62
2022/04/12 10:18:05;;;;;;;8.60;2.50;;;;;;;22.77;31.56;100638.28;3550296;40;20131;-62
2022/04/12 10:20:32;;;;;;;9.43;2.83;;;;;;;23.03;31.15;100640.78;3547212;40;21579;-62
2022/04/12 10:22:59;;;;;;;3.95;2.45;;;;;;;23.12;30.48;100645.16;3549980;40;20045;-62
2022/04/12 10:25:27;;;;;;;10.18;3.08;;;;;;;23.11;30.88;100646.19;3531086;40;20054;-63
2022/04/12 10:27:59;;;;;;;5.47;3.00;;;;;;;23.18;30.98;100636.19;3541945;40;20129;-62
2022/04/12 10:30:30;;;;;;;3.83;2.83;;;;;;;23.25;30.88;100628.97;3536646;40;20061;-61
2022/04/12 10:33:08;;;;;;;4.07;2.80;;;;;;;23.33;30.33;100625.28;3543263;40;20058;-62
2022/04/12 10:35:45;;;;;;;5.95;2.97;;;;;;;23.41;30.99;100622.50;3542508;40;20057;-62
2022/04/12 10:38:19;;;;;;;6.22;3.65;;;;;;;23.61;30.66;100618.19;3543592;40;20426;-62
2022/04/12 10:40:57;;;;;;;8.80;5.88;;;;;;;23.81;30.02;100617.72;3535065;40;20152;-62
2022/04/12 10:43:36;;;;;;;3.88;2.70;;;;;;;23.92;30.42;100619.16;3539355;40;20069;-62
2022/04/12 10:46:06;;;;;;;9.95;2.67;;;;;;;24.07;30.41;100617.25;3535717;40;20366;-62
2022/04/12 10:48:32;;;;;;;5.53;2.80;;;;;;;24.07;29.59;100628.25;3542517;40;20061;-62
2022/04/12 10:51:04;;;;;;;5.97;2.50;;;;;;;23.95;29.96;100625.13;3545051;40;20050;-63
2022/04/12 10:53:36;;;;;;;4.88;2.58;;;;;;;24.03;30.41;100610.44;3545659;40;20073;-61
2022/04/12 10:56:09;;;;;;;5.78;2.90;;;;;;;24.10;30.31;100594.91;3552223;40;20057;-62
2022/04/12 10:58:34;;;;;;;4.50;2.67;;;;;;;24.22;29.04;100609.88;3536776;40;20050;-62
2022/04/12 11:01:02;;;;;;;3.65;2.72;;;;;;;24.08;28.83;100602.50;3548746;40;20046;-62
2022/04/12 11:03:43;;;;;;;8.32;3.63;;;;;;;23.95;29.61;100597.69;3534837;40;20068;-62
2022/04/12 11:06:24;;;;;;;3.90;2.45;;;;;;;24.17;29.20;100606.00;3545160;40;20399;-62
2022/04/12 11:08:53;;;;;;;6.80;2.65;;;;;;;24.19;29.95;100618.50;3544192;40;20068;-62
2022/04/12 11:11:45;;;;;;;5.68;2.80;;;;;;;24.35;29.89;100622.09;3542754;40;20049;-63
2022/04/12 11:14:24;;;;;;;4.82;2.70;;;;;;;24.50;28.96;100601.84;3533348;40;20392;-63
2022/04/12 11:16:57;;;;;;;5.57;2.90;;;;;;;24.45;29.42;100619.94;3548223;40;20053;-61
2022/04/12 11:19:24;;;;;;;5.63;2.60;;;;;;;24.14;29.09;100612.75;3537042;40;21141;-62
2022/04/12 11:21:55;;;;;;;4.50;2.95;;;;;;;23.92;29.75;100616.41;3547479;40;20049;-61
2022/04/12 11:24:23;;;;;;;4.20;3.03;;;;;;;23.71;29.59;100611.63;3540462;40;20796;-62
2022/04/12 11:27:11;;;;;;;6.03;3.20;;;;;;;22.38;29.98;100434.56;3546361;40;20064;-62
2022/04/12 11:29:40;;;;;;;8.40;2.80;;;;;;;23.53;30.58;100611.91;3536684;40;20062;-62